Frenchville, Maine
Current Conditions -  °F | °C
As of 4:53 PM on Thursday 23 Oct 2014 (Local Time) from KFVE Reporting Station
Scattered Clouds Scattered Clouds  
Wind Chill: 36°   Ceiling: Unl
Heat Index: 43°   Visibility: 10mi
Dew Point: 35°   Wind: 15mph
Humidity: 74%   Direction: 30°NNE
Pressure: 30.05"   Gusts: 25mph
Location:  47.28°N, 68.38°W
Report Text: KFVE 232053Z AUTO 03013G22KT 10SM SCT065 06/02 A3005 RMK AO2 SLP183 T00610017 58016
Loading
Personal Weather Stations






























Interactive Weather Map
Tropical Storm Tracking
New forecast layout! Learn more

10-Day Weather Forecast

Advertisements
Track Severe Weather on mobile